createdAt,value
2023-05-21T00:00:48.634Z,101802.38
2023-05-21T00:03:17.803Z,101801.53
2023-05-21T00:05:46.955Z,101792.69
2023-05-21T00:08:15.001Z,101786.69
2023-05-21T00:10:42.552Z,101787.06
2023-05-21T00:13:10.492Z,101787.06
2023-05-21T00:15:38.171Z,101780.97
2023-05-21T00:18:06.273Z,101781.09
2023-05-21T00:20:35.482Z,101776.41
2023-05-21T00:23:03.993Z,101774.41
2023-05-21T00:25:31.716Z,101776.41
2023-05-21T00:27:59.276Z,101776.81
2023-05-21T00:30:26.803Z,101769.16
2023-05-21T00:32:54.693Z,101772.25
2023-05-21T00:35:22.326Z,101770.16
2023-05-21T00:37:52.014Z,101767.47
2023-05-21T00:40:19.944Z,101762.44
2023-05-21T00:42:47.873Z,101765.63
2023-05-21T00:45:15.860Z,101764.28
2023-05-21T00:47:45.103Z,101759.84
2023-05-21T00:50:14.830Z,101761.84
2023-05-21T00:52:45.659Z,101758.53
2023-05-21T00:55:14.730Z,101759.13
2023-05-21T00:57:42.878Z,101754.81
2023-05-21T01:00:11.896Z,101752.81
2023-05-21T01:02:39.813Z,101765.75
2023-05-21T01:05:08.290Z,101754.78
2023-05-21T01:07:38.930Z,101753.63
2023-05-21T01:10:09.564Z,101760.78
2023-05-21T01:12:40.604Z,101757.47
2023-05-21T01:15:10.906Z,101760.78
2023-05-21T01:17:39.735Z,101761.81
2023-05-21T01:20:11.024Z,101756.00
2023-05-21T01:22:44.435Z,101754.16
2023-05-21T01:25:13.411Z,101756.22
2023-05-21T01:27:41.567Z,101756.84
2023-05-21T01:30:10.168Z,101758.50
2023-05-21T01:32:46.228Z,101755.44
2023-05-21T01:35:18.349Z,101750.25
2023-05-21T01:37:50.145Z,101750.84
2023-05-21T01:40:26.953Z,101745.72
2023-05-21T01:42:54.848Z,101748.34
2023-05-21T01:45:25.099Z,101741.94
2023-05-21T01:47:55.070Z,101744.44
2023-05-21T01:50:24.656Z,101744.59
2023-05-21T01:52:53.318Z,101739.88
2023-05-21T01:55:24.583Z,101733.72
2023-05-21T01:57:53.736Z,101736.41
2023-05-21T02:00:22.257Z,101737.47
2023-05-21T02:02:50.155Z,101725.06
2023-05-21T02:05:17.935Z,101731.84
2023-05-21T02:07:45.980Z,101727.53
2023-05-21T02:10:13.724Z,101724.19
2023-05-21T02:12:43.092Z,101724.41
2023-05-21T02:15:11.105Z,101722.16
2023-05-21T02:17:39.017Z,101721.66
2023-05-21T02:20:12.065Z,101725.34
2023-05-21T02:22:40.265Z,101726.59
2023-05-21T02:25:09.782Z,101723.22
2023-05-21T02:27:38.384Z,101717.69
2023-05-21T02:30:09.307Z,101719.53
2023-05-21T02:32:37.019Z,101707.66
2023-05-21T02:35:05.698Z,101710.94
2023-05-21T02:37:34.679Z,101708.66
2023-05-21T02:40:05.882Z,101704.59
2023-05-21T02:42:34.583Z,101709.94
2023-05-21T02:45:02.160Z,101695.31
2023-05-21T02:47:31.621Z,101695.91
2023-05-21T02:50:01.408Z,101693.22
2023-05-21T02:52:29.342Z,101694.25
2023-05-21T02:54:57.001Z,101687.88
2023-05-21T02:57:24.627Z,101692.75
2023-05-21T02:59:52.213Z,101692.25
2023-05-21T03:02:19.920Z,101687.09
2023-05-21T03:04:48.952Z,101691.28
2023-05-21T03:07:18.833Z,101690.63
2023-05-21T03:09:47.144Z,101689.84
2023-05-21T03:12:15.082Z,101691.88
2023-05-21T03:14:44.069Z,101688.78
2023-05-21T03:17:14.027Z,101686.91
2023-05-21T03:19:42.778Z,101685.50
2023-05-21T03:22:12.136Z,101684.88
2023-05-21T03:24:41.368Z,101686.50
2023-05-21T03:27:09.795Z,101692.25
2023-05-21T03:29:37.579Z,101687.66
2023-05-21T03:32:08.050Z,101695.97
2023-05-21T03:34:36.073Z,101690.03
2023-05-21T03:37:04.243Z,101680.09
2023-05-21T03:39:34.890Z,101687.03
2023-05-21T03:42:02.503Z,101685.66
2023-05-21T03:44:40.520Z,101681.75
2023-05-21T03:47:26.552Z,101682.38
2023-05-21T03:49:54.996Z,101675.31
2023-05-21T03:52:22.758Z,101686.06
2023-05-21T03:54:51.745Z,101676.19
2023-05-21T03:57:19.540Z,101682.59
2023-05-21T03:59:48.452Z,101676.84
2023-05-21T04:02:16.472Z,101672.50
2023-05-21T04:04:45.350Z,101676.09
2023-05-21T04:07:15.209Z,101671.66
2023-05-21T04:09:42.908Z,101671.66
2023-05-21T04:12:11.804Z,101672.09
2023-05-21T04:14:39.465Z,101667.53
2023-05-21T04:17:07.106Z,101676.63
2023-05-21T04:19:34.918Z,101664.75
2023-05-21T04:22:04.470Z,101664.97
2023-05-21T04:24:32.483Z,101661.88
2023-05-21T04:27:24.553Z,101665.66
2023-05-21T04:29:54.624Z,101656.25
2023-05-21T04:32:23.854Z,101652.13
2023-05-21T04:34:51.479Z,101646.75
2023-05-21T04:37:19.390Z,101651.56
2023-05-21T04:39:48.004Z,101653.09
2023-05-21T04:42:15.599Z,101659.94
2023-05-21T04:44:44.700Z,101663.59
2023-05-21T04:47:14.818Z,101657.25
2023-05-21T04:49:42.738Z,101655.75
2023-05-21T04:52:10.530Z,101647.16
2023-05-21T04:54:39.025Z,101654.59
2023-05-21T04:57:07.304Z,101654.59
2023-05-21T04:59:35.716Z,101656.50
2023-05-21T05:02:04.824Z,101657.13
2023-05-21T05:04:32.775Z,101645.84
2023-05-21T05:07:00.513Z,101648.75
2023-05-21T05:09:30.144Z,101653.50
2023-05-21T05:11:57.963Z,101650.84
2023-05-21T05:14:26.225Z,101647.56
2023-05-21T05:16:54.364Z,101655.41
2023-05-21T05:19:23.662Z,101653.53
2023-05-21T05:21:51.524Z,101648.63
2023-05-21T05:24:19.828Z,101656.88
2023-05-21T05:26:48.095Z,101659.16
2023-05-21T05:29:15.910Z,101659.13
2023-05-21T05:31:43.761Z,101657.91
2023-05-21T05:34:11.472Z,101646.34
2023-05-21T05:36:40.523Z,101652.13
2023-05-21T05:39:09.064Z,101649.44
2023-05-21T05:41:36.977Z,101644.69
2023-05-21T05:44:04.958Z,101645.09
2023-05-21T05:46:37.116Z,101644.06
2023-05-21T05:49:05.004Z,101645.53
2023-05-21T05:51:32.934Z,101645.13
2023-05-21T05:54:02.005Z,101646.56
2023-05-21T05:56:29.888Z,101646.34
2023-05-21T05:58:57.626Z,101647.19
2023-05-21T06:01:29.600Z,101661.63
2023-05-21T06:03:58.217Z,101652.09
2023-05-21T06:06:26.496Z,101651.25
2023-05-21T06:08:54.521Z,101653.34
2023-05-21T06:11:23.569Z,101639.47
2023-05-21T06:13:51.246Z,101646.28
2023-05-21T06:16:19.657Z,101644.19
2023-05-21T06:18:47.868Z,101629.06
2023-05-21T06:21:15.827Z,101636.09
2023-05-21T06:23:43.542Z,101631.75
2023-05-21T06:26:11.421Z,101635.41
2023-05-21T06:28:40.695Z,101631.06
2023-05-21T06:31:11.721Z,101632.63
2023-05-21T06:33:40.439Z,101632.34
2023-05-21T06:36:08.244Z,101634.63
2023-05-21T06:38:36.218Z,101638.69
2023-05-21T06:41:04.388Z,101642.50
2023-05-21T06:44:02.365Z,101642.72
2023-05-21T06:46:48.958Z,101643.06
2023-05-21T06:49:16.668Z,101643.81
2023-05-21T06:51:44.931Z,101644.59
2023-05-21T06:54:14.191Z,101643.03
2023-05-21T06:56:42.849Z,101644.59
2023-05-21T06:59:11.931Z,101644.06
2023-05-21T07:01:42.507Z,101643.00
2023-05-21T07:04:10.690Z,101637.03
2023-05-21T07:06:38.802Z,101635.81
2023-05-21T07:09:06.722Z,101637.19
2023-05-21T07:11:35.956Z,101628.81
2023-05-21T07:14:05.750Z,101623.59
2023-05-21T07:16:37.637Z,101631.81
2023-05-21T07:19:05.586Z,101621.19
2023-05-21T07:21:33.370Z,101624.19
2023-05-21T07:24:01.094Z,101629.03
2023-05-21T07:26:28.786Z,101635.41
2023-05-21T07:28:56.444Z,101631.19
2023-05-21T07:31:25.208Z,101628.13
2023-05-21T07:33:55.167Z,101624.44
2023-05-21T07:36:27.437Z,101629.44
2023-05-21T07:38:55.242Z,101616.94
2023-05-21T07:41:23.703Z,101625.16
2023-05-21T07:43:52.208Z,101619.13
2023-05-21T07:46:20.853Z,101623.59
2023-05-21T07:48:51.963Z,101629.00
2023-05-21T07:51:21.051Z,101621.75
2023-05-21T07:53:48.840Z,101625.03
2023-05-21T07:56:18.990Z,101623.22
2023-05-21T07:58:47.333Z,101617.25
2023-05-21T08:01:17.188Z,101613.41
2023-05-21T08:03:44.894Z,101615.97
2023-05-21T08:06:12.716Z,101608.84
2023-05-21T08:08:43.274Z,101604.00
2023-05-21T08:11:11.167Z,101604.72
2023-05-21T08:13:38.851Z,101609.06
2023-05-21T08:16:08.827Z,101605.41
2023-05-21T08:18:36.554Z,101600.81
2023-05-21T08:21:05.057Z,101600.44
2023-05-21T08:23:32.966Z,101595.97
2023-05-21T08:26:02.687Z,101597.94
2023-05-21T08:28:31.805Z,101597.22
2023-05-21T08:31:00.782Z,101600.03
2023-05-21T08:33:28.759Z,101603.41
2023-05-21T08:35:56.708Z,101600.78
2023-05-21T08:38:31.952Z,101600.72
2023-05-21T08:41:26.894Z,101598.66
2023-05-21T08:43:57.978Z,101606.38
2023-05-21T08:46:33.236Z,101607.97
2023-05-21T08:49:03.704Z,101608.06
2023-05-21T08:51:32.780Z,101600.03
2023-05-21T08:54:02.731Z,101602.06
2023-05-21T08:56:33.498Z,101602.44
2023-05-21T08:59:02.487Z,101591.94
2023-05-21T09:01:34.953Z,101593.31
2023-05-21T09:04:20.393Z,101588.16
2023-05-21T09:06:51.207Z,101586.53
2023-05-21T09:09:31.364Z,101582.56
2023-05-21T09:12:00.912Z,101583.56
2023-05-21T09:14:29.391Z,101580.84
2023-05-21T09:17:20.765Z,101586.34
2023-05-21T09:20:12.282Z,101590.63
2023-05-21T09:22:44.087Z,101583.88
2023-05-21T09:25:13.763Z,101581.28
2023-05-21T09:27:43.175Z,101578.22
2023-05-21T09:30:12.632Z,101577.16
2023-05-21T09:32:40.861Z,101589.66
2023-05-21T09:35:10.588Z,101586.19
2023-05-21T09:37:38.978Z,101589.97
2023-05-21T09:40:12.159Z,101594.25
2023-05-21T09:42:40.288Z,101591.53
2023-05-21T09:45:10.516Z,101593.56
2023-05-21T09:47:43.267Z,101594.88
2023-05-21T09:50:12.154Z,101590.28
2023-05-21T09:52:42.017Z,101588.97
2023-05-21T09:55:13.159Z,101588.22
2023-05-21T09:57:44.255Z,101587.22
2023-05-21T10:00:20.158Z,101586.59
2023-05-21T10:02:49.534Z,101588.00
2023-05-21T10:05:18.397Z,101583.75
2023-05-21T10:07:51.227Z,101595.69
2023-05-21T10:10:21.825Z,101588.66
2023-05-21T10:12:55.797Z,101578.16
2023-05-21T10:15:25.784Z,101587.28
2023-05-21T10:17:54.016Z,101581.91
2023-05-21T10:20:23.386Z,101576.88
2023-05-21T10:22:51.529Z,101565.66
2023-05-21T10:25:19.816Z,101575.47
2023-05-21T10:27:49.157Z,101574.47
2023-05-21T10:30:19.004Z,101561.72
2023-05-21T10:32:48.905Z,101564.03
2023-05-21T10:35:17.098Z,101563.97
2023-05-21T10:37:45.073Z,101565.53
2023-05-21T10:40:13.689Z,101564.03
2023-05-21T10:43:09.213Z,101566.94
2023-05-21T10:45:52.235Z,101555.34
2023-05-21T10:48:43.280Z,101557.09
2023-05-21T10:51:21.165Z,101559.69
2023-05-21T10:54:15.613Z,101551.16
2023-05-21T10:56:49.822Z,101552.41
2023-05-21T10:59:32.315Z,101550.94
2023-05-21T11:02:01.681Z,101547.28
2023-05-21T11:04:30.702Z,101547.19
2023-05-21T11:07:00.038Z,101542.22
2023-05-21T11:09:27.880Z,101542.22
2023-05-21T11:11:58.994Z,101543.47
2023-05-21T11:14:27.888Z,101537.75
2023-05-21T11:16:56.934Z,101548.34
2023-05-21T11:19:35.912Z,101534.50
2023-05-21T11:22:07.288Z,101532.38
2023-05-21T11:24:38.535Z,101532.03
2023-05-21T11:27:07.044Z,101525.81
2023-05-21T11:29:42.686Z,101530.66
2023-05-21T11:32:11.812Z,101525.88
2023-05-21T11:34:45.781Z,101530.03
2023-05-21T11:37:34.579Z,101523.50
2023-05-21T11:40:19.052Z,101528.09
2023-05-21T11:42:52.572Z,101528.72
2023-05-21T11:45:21.352Z,101518.34
2023-05-21T11:47:50.057Z,101521.09
2023-05-21T11:50:19.386Z,101524.91
2023-05-21T11:52:47.327Z,101527.88
2023-05-21T11:55:16.458Z,101521.06
2023-05-21T11:57:47.809Z,101528.72
2023-05-21T12:00:16.863Z,101522.47
2023-05-21T12:02:49.079Z,101516.72
2023-05-21T12:05:16.868Z,101510.72
2023-05-21T12:07:49.907Z,101525.97
2023-05-21T12:10:18.109Z,101517.53
2023-05-21T12:12:54.595Z,101513.44
2023-05-21T12:15:24.814Z,101509.09
2023-05-21T12:17:53.003Z,101515.38
2023-05-21T12:20:21.155Z,101508.81
2023-05-21T12:22:51.180Z,101507.19
2023-05-21T12:25:20.436Z,101506.38
2023-05-21T12:27:50.888Z,101499.25
2023-05-21T12:30:18.824Z,101502.25
2023-05-21T12:32:46.559Z,101505.25
2023-05-21T12:35:24.523Z,101502.00
2023-05-21T12:37:53.876Z,101497.06
2023-05-21T12:40:22.274Z,101495.31
2023-05-21T12:42:50.929Z,101500.19
2023-05-21T12:45:19.001Z,101493.91
2023-05-21T12:47:50.558Z,101496.88
2023-05-21T12:50:21.914Z,101501.88
2023-05-21T12:52:49.581Z,101496.44
2023-05-21T12:55:19.217Z,101493.38
2023-05-21T12:57:47.165Z,101498.53
2023-05-21T13:00:15.002Z,101493.28
2023-05-21T13:02:44.557Z,101490.50
2023-05-21T13:05:17.555Z,101485.66
2023-05-21T13:07:46.896Z,101479.94
2023-05-21T13:10:16.470Z,101477.09
2023-05-21T13:12:46.036Z,101481.53
2023-05-21T13:15:13.714Z,101473.94
2023-05-21T13:17:41.384Z,101481.88
2023-05-21T13:20:12.067Z,101470.94
2023-05-21T13:22:42.740Z,101473.78
2023-05-21T13:25:11.173Z,101466.72
2023-05-21T13:27:38.882Z,101473.09
2023-05-21T13:30:09.501Z,101469.22
2023-05-21T13:32:37.428Z,101473.81
2023-05-21T13:35:06.141Z,101464.47
2023-05-21T13:37:36.041Z,101464.81
2023-05-21T13:40:04.018Z,101462.28
2023-05-21T13:42:31.618Z,101457.81
2023-05-21T13:44:59.545Z,101454.63
2023-05-21T13:47:28.564Z,101455.28
2023-05-21T13:49:56.157Z,101454.09
2023-05-21T13:52:23.777Z,101448.63
2023-05-21T13:54:51.361Z,101452.66
2023-05-21T13:57:19.030Z,101448.06
2023-05-21T13:59:46.680Z,101448.00
2023-05-21T14:02:14.259Z,101448.41
2023-05-21T14:04:43.222Z,101447.78
2023-05-21T14:07:11.898Z,101439.88
2023-05-21T14:09:39.608Z,101438.06
2023-05-21T14:12:07.544Z,101434.72
2023-05-21T14:14:36.098Z,101436.53
2023-05-21T14:17:03.737Z,101451.81
2023-05-21T14:19:31.367Z,101437.78
2023-05-21T14:22:00.644Z,101446.25
2023-05-21T14:24:28.245Z,101441.28
2023-05-21T14:26:55.814Z,101439.56
2023-05-21T14:29:23.482Z,101437.91
2023-05-21T14:31:51.173Z,101440.69
2023-05-21T14:34:18.740Z,101437.44
2023-05-21T14:36:46.439Z,101433.59
2023-05-21T14:39:15.388Z,101436.00
2023-05-21T14:41:42.982Z,101427.97
2023-05-21T14:44:10.622Z,101427.38
2023-05-21T14:46:39.648Z,101434.59
2023-05-21T14:49:07.440Z,101432.03
2023-05-21T14:51:35.044Z,101432.31
2023-05-21T14:54:02.576Z,101437.59
2023-05-21T14:56:31.558Z,101438.38
2023-05-21T14:58:59.135Z,101427.63
2023-05-21T15:01:26.826Z,101437.66
2023-05-21T15:03:56.232Z,101428.19
2023-05-21T15:06:23.916Z,101435.53
2023-05-21T15:08:51.542Z,101433.97
2023-05-21T15:11:19.115Z,101429.09
2023-05-21T15:13:48.133Z,101432.81
2023-05-21T15:16:17.402Z,101430.38
2023-05-21T15:18:47.131Z,101426.47
2023-05-21T15:21:14.811Z,101429.25
2023-05-21T15:23:42.388Z,101425.84
2023-05-21T15:26:09.983Z,101428.84
2023-05-21T15:28:37.552Z,101422.59
2023-05-21T15:31:06.721Z,101430.78
2023-05-21T15:33:34.301Z,101422.66
2023-05-21T15:36:01.903Z,101428.09
2023-05-21T15:38:29.516Z,101419.88
2023-05-21T15:40:58.033Z,101424.28
2023-05-21T15:43:25.650Z,101415.63
2023-05-21T15:45:53.628Z,101416.97
2023-05-21T15:48:22.864Z,101409.00
2023-05-21T15:50:50.868Z,101413.91
2023-05-21T15:53:18.503Z,101409.25
2023-05-21T15:55:46.195Z,101403.53
2023-05-21T15:58:13.824Z,101397.53
2023-05-21T16:00:41.415Z,101396.44
2023-05-21T16:03:09.225Z,101392.97
2023-05-21T16:05:38.315Z,101394.81
2023-05-21T16:08:06.134Z,101393.44
2023-05-21T16:10:33.683Z,101390.19
2023-05-21T16:13:01.240Z,101396.25
2023-05-21T16:15:32.195Z,101385.34
2023-05-21T16:17:59.803Z,101386.16
2023-05-21T16:20:27.526Z,101390.03
2023-05-21T16:22:56.540Z,101391.84
2023-05-21T16:25:24.118Z,101382.34
2023-05-21T16:27:51.830Z,101390.03
2023-05-21T16:30:19.370Z,101387.50
2023-05-21T16:32:47.008Z,101394.91
2023-05-21T16:35:14.584Z,101383.44
2023-05-21T16:37:42.254Z,101379.66
2023-05-21T16:40:12.578Z,101380.22
2023-05-21T16:42:40.734Z,101380.84
2023-05-21T16:45:10.757Z,101380.03
2023-05-21T16:47:38.513Z,101382.16
2023-05-21T16:50:07.467Z,101384.63
2023-05-21T16:52:35.202Z,101377.56
2023-05-21T16:55:03.408Z,101371.63
2023-05-21T16:57:32.319Z,101369.75
2023-05-21T17:00:00.057Z,101370.84
2023-05-21T17:02:27.697Z,101371.69
2023-05-21T17:04:55.517Z,101369.25
2023-05-21T17:07:23.316Z,101364.91
2023-05-21T17:09:50.918Z,101372.81
2023-05-21T17:12:18.640Z,101371.72
2023-05-21T17:14:47.790Z,101375.56
2023-05-21T17:17:16.218Z,101366.28
2023-05-21T17:19:44.777Z,101375.56
2023-05-21T17:22:12.503Z,101371.19
2023-05-21T17:24:40.170Z,101381.56
2023-05-21T17:27:07.980Z,101379.66
2023-05-21T17:29:35.533Z,101382.38
2023-05-21T17:32:05.259Z,101382.69
2023-05-21T17:34:33.340Z,101375.88
2023-05-21T17:37:00.875Z,101372.91
2023-05-21T17:39:28.476Z,101370.72
2023-05-21T17:41:57.228Z,101381.34
2023-05-21T17:44:24.834Z,101387.63
2023-05-21T17:46:52.791Z,101387.28
2023-05-21T17:49:21.762Z,101390.28
2023-05-21T17:51:49.807Z,101389.19
2023-05-21T17:54:17.415Z,101383.75
2023-05-21T17:56:46.577Z,101386.50
2023-05-21T17:59:15.810Z,101389.47
2023-05-21T18:01:43.371Z,101394.91
2023-05-21T18:04:12.341Z,101397.06
2023-05-21T18:06:41.368Z,101394.06
2023-05-21T18:09:10.498Z,101399.50
2023-05-21T18:11:38.189Z,101393.53
2023-05-21T18:14:05.823Z,101394.03
2023-05-21T18:16:33.499Z,101382.06
2023-05-21T18:19:02.056Z,101384.50
2023-05-21T18:21:29.740Z,101379.88
2023-05-21T18:23:58.661Z,101388.84
2023-05-21T18:26:26.237Z,101388.28
2023-05-21T18:28:53.762Z,101386.94
2023-05-21T18:31:21.383Z,101386.34
2023-05-21T18:33:48.952Z,101395.56
2023-05-21T18:36:17.220Z,101389.31
2023-05-21T18:38:45.072Z,101389.00
2023-05-21T18:41:14.066Z,101390.63
2023-05-21T18:43:42.356Z,101385.97
2023-05-21T18:46:10.062Z,101392.75
2023-05-21T18:48:37.722Z,101388.94
2023-05-21T18:51:05.385Z,101395.44
2023-05-21T18:53:33.073Z,101386.19
2023-05-21T18:56:00.638Z,101384.50
2023-05-21T18:58:30.292Z,101389.94
2023-05-21T19:00:58.000Z,101382.03
2023-05-21T19:03:26.034Z,101384.44
2023-05-21T19:05:53.617Z,101385.28
2023-05-21T19:08:21.256Z,101390.38
2023-05-21T19:10:48.841Z,101384.13
2023-05-21T19:13:16.609Z,101393.09
2023-05-21T19:15:47.919Z,101390.28
2023-05-21T19:18:17.000Z,101385.88
2023-05-21T19:20:44.597Z,101388.59
2023-05-21T19:23:12.291Z,101390.22
2023-05-21T19:25:39.870Z,101388.03
2023-05-21T19:28:07.451Z,101386.91
2023-05-21T19:30:36.362Z,101390.13
2023-05-21T19:33:06.235Z,101391.16
2023-05-21T19:35:33.866Z,101385.19
2023-05-21T19:38:03.402Z,101396.56
2023-05-21T19:40:32.559Z,101396.53
2023-05-21T19:43:00.219Z,101403.03
2023-05-21T19:45:28.205Z,101405.19
2023-05-21T19:47:56.001Z,101405.91
2023-05-21T19:50:25.063Z,101410.56
2023-05-21T19:52:53.375Z,101405.09
2023-05-21T19:55:21.263Z,101415.91
2023-05-21T19:57:49.118Z,101413.75
2023-05-21T20:00:18.257Z,101417.81
2023-05-21T20:02:47.142Z,101419.09
2023-05-21T20:05:14.760Z,101422.38
2023-05-21T20:07:43.739Z,101424.97
2023-05-21T20:10:11.687Z,101430.91
2023-05-21T20:12:39.440Z,101429.22
2023-05-21T20:15:08.470Z,101432.41
2023-05-21T20:17:39.757Z,101434.22
2023-05-21T20:20:10.258Z,101427.41
2023-05-21T20:22:38.218Z,101435.53
2023-05-21T20:25:08.985Z,101428.41
2023-05-21T20:27:38.963Z,101426.16
2023-05-21T20:30:08.413Z,101439.22
2023-05-21T20:32:36.416Z,101433.78
2023-05-21T20:35:04.253Z,101428.59
2023-05-21T20:37:33.822Z,101447.22
2023-05-21T20:40:01.600Z,101429.31
2023-05-21T20:42:35.052Z,101435.81
2023-05-21T20:45:03.095Z,101432.53
2023-05-21T20:47:30.807Z,101438.72
2023-05-21T20:50:00.054Z,101438.00
2023-05-21T20:52:27.616Z,101438.66
2023-05-21T20:54:55.574Z,101440.66
2023-05-21T20:57:23.926Z,101440.06
2023-05-21T20:59:53.329Z,101444.63
2023-05-21T21:02:21.548Z,101441.00
2023-05-21T21:04:50.654Z,101442.84
2023-05-21T21:07:19.018Z,101440.91
2023-05-21T21:09:46.920Z,101434.66
2023-05-21T21:12:25.333Z,101436.78
2023-05-21T21:14:55.810Z,101436.97
2023-05-21T21:17:23.686Z,101431.69
2023-05-21T21:19:51.284Z,101430.88
2023-05-21T21:22:18.902Z,101436.38
2023-05-21T21:24:46.456Z,101437.44
2023-05-21T21:27:14.030Z,101433.84
2023-05-21T21:29:41.676Z,101434.91
2023-05-21T21:32:10.675Z,101439.25
2023-05-21T21:34:38.266Z,101436.81
2023-05-21T21:37:06.228Z,101443.28
2023-05-21T21:39:33.801Z,101433.50
2023-05-21T21:42:01.437Z,101437.53
2023-05-21T21:44:29.265Z,101438.28
2023-05-21T21:46:56.809Z,101439.91
2023-05-21T21:49:25.798Z,101436.41
2023-05-21T21:51:57.344Z,101438.78
2023-05-21T21:54:24.903Z,101434.50
2023-05-21T21:56:52.421Z,101438.28
2023-05-21T21:59:20.520Z,101435.47
2023-05-21T22:01:48.152Z,101433.84
2023-05-21T22:04:15.830Z,101428.44
2023-05-21T22:06:45.401Z,101436.50
2023-05-21T22:09:13.078Z,101426.47
2023-05-21T22:11:40.663Z,101433.78
2023-05-21T22:14:08.466Z,101428.25
2023-05-21T22:16:36.526Z,101433.13
2023-05-21T22:19:04.448Z,101430.41
2023-05-21T22:21:34.261Z,101425.81
2023-05-21T22:24:03.978Z,101427.94
2023-05-21T22:26:31.686Z,101425.97
2023-05-21T22:28:59.922Z,101428.13
2023-05-21T22:31:28.106Z,101417.94
2023-05-21T22:33:55.681Z,101427.44
2023-05-21T22:36:23.452Z,101417.25
2023-05-21T22:38:51.051Z,101420.22
2023-05-21T22:41:20.713Z,101420.13
2023-05-21T22:43:48.328Z,101415.78
2023-05-21T22:46:16.045Z,101421.09
2023-05-21T22:48:43.966Z,101418.88
2023-05-21T22:51:11.546Z,101414.91
2023-05-21T22:53:39.160Z,101417.28
2023-05-21T22:56:06.933Z,101411.59
2023-05-21T22:58:36.716Z,101416.22
2023-05-21T23:01:05.586Z,101408.31
2023-05-21T23:03:33.175Z,101412.47
2023-05-21T23:06:00.805Z,101409.59
2023-05-21T23:08:28.397Z,101403.94
2023-05-21T23:10:56.066Z,101412.06
2023-05-21T23:13:23.684Z,101410.09
2023-05-21T23:15:53.641Z,101405.16
2023-05-21T23:18:21.203Z,101407.13
2023-05-21T23:20:48.758Z,101404.81
2023-05-21T23:23:16.368Z,101403.91
2023-05-21T23:25:43.994Z,101419.75
2023-05-21T23:28:11.594Z,101407.66
2023-05-21T23:30:39.595Z,101412.50
2023-05-21T23:33:09.803Z,101406.16
2023-05-21T23:35:37.497Z,101407.56
2023-05-21T23:38:05.061Z,101403.28
2023-05-21T23:40:32.638Z,101397.72
2023-05-21T23:43:00.506Z,101403.22
2023-05-21T23:45:28.043Z,101398.19
2023-05-21T23:47:55.661Z,101403.59
2023-05-21T23:50:25.873Z,101391.22
2023-05-21T23:52:53.505Z,101397.59
2023-05-21T23:55:21.190Z,101387.16
2023-05-21T23:57:48.726Z,101391.75
